Time;durP1;ratioP1;P1;durP2;ratioP2;P2;SDS_P1;SDS_P2;PMS_P1;PMS_P2;Temp;Humidity;BMP_temperature;BMP_pressure;BME280_temperature;BME280_humidity;BME280_pressure;Samples;Min_cycle;Max_cycle;Signal;HPM_P1;HPM_P2
2022/12/02 00:01:59;;;;;;;18.55;9.10;;;;;;;-9.15;82.15;103504.22;10611949;27;20035;-78
2022/12/02 00:07:04;;;;;;;19.10;10.33;;;;;;;-9.13;82.18;103497.03;10607948;27;20580;-77
2022/12/02 00:12:18;;;;;;;20.05;9.15;;;;;;;-9.20;82.40;103506.25;10594222;28;20031;-78
2022/12/02 00:17:20;;;;;;;20.38;9.63;;;;;;;-9.30;82.00;103523.66;10591058;28;20086;-77
2022/12/02 00:22:23;;;;;;;22.85;10.32;;;;;;;-9.37;81.60;103498.31;10608677;28;20044;-77
2022/12/02 00:27:25;;;;;;;19.13;8.95;;;;;;;-9.42;82.21;103496.75;10596151;28;20070;-77
2022/12/02 00:32:27;;;;;;;21.15;9.25;;;;;;;-9.39;81.90;103490.44;10608885;28;20051;-77
2022/12/02 00:37:30;;;;;;;18.63;9.45;;;;;;;-9.37;82.08;103482.38;10576482;28;20418;-77
2022/12/02 00:42:32;;;;;;;19.60;10.57;;;;;;;-9.29;82.26;103501.44;10585535;28;20039;-77
2022/12/02 00:47:34;;;;;;;16.67;8.75;;;;;;;-9.26;81.40;103487.97;10645998;28;20414;-77
2022/12/02 00:52:36;;;;;;;17.77;9.05;;;;;;;-9.18;81.31;103483.13;10613347;28;20042;-77
2022/12/02 00:57:39;;;;;;;21.70;10.70;;;;;;;-9.12;81.69;103470.34;10611094;28;20063;-76
2022/12/02 01:02:41;;;;;;;19.83;9.32;;;;;;;-9.06;81.57;103466.47;10633486;28;20054;-77
2022/12/02 01:07:43;;;;;;;18.20;10.02;;;;;;;-9.04;80.61;103483.22;10625141;28;20066;-77
2022/12/02 01:12:45;;;;;;;20.88;9.32;;;;;;;-8.98;81.34;103474.91;10614579;28;20050;-77
2022/12/02 01:17:48;;;;;;;18.52;9.75;;;;;;;-8.98;80.75;103469.59;10619399;28;20039;-77
2022/12/02 01:22:51;;;;;;;20.77;9.63;;;;;;;-8.97;80.74;103471.31;10629331;27;20046;-78
2022/12/02 01:27:53;;;;;;;16.83;9.00;;;;;;;-8.94;80.22;103460.50;10631749;27;20443;-77
2022/12/02 01:32:55;;;;;;;16.95;8.65;;;;;;;-8.90;80.11;103454.06;10607837;27;20039;-77
2022/12/02 01:37:57;;;;;;;16.45;9.27;;;;;;;-8.88;80.54;103484.09;10599544;27;20056;-78
2022/12/02 01:43:18;;;;;;;16.88;7.90;;;;;;;-8.89;80.55;103466.41;10610484;27;20417;-77
2022/12/02 01:48:39;;;;;;;19.33;9.35;;;;;;;-8.92;80.40;103477.22;10629575;27;20047;-76
2022/12/02 01:54:00;;;;;;;17.35;7.70;;;;;;;-9.00;80.08;103470.63;10617048;28;20047;-76
2022/12/02 01:59:21;;;;;;;17.48;8.77;;;;;;;-9.11;80.06;103457.91;10588385;27;20501;-78
2022/12/02 02:04:43;;;;;;;18.83;9.10;;;;;;;-9.12;80.27;103458.84;10622618;27;20443;-76
2022/12/02 02:10:05;;;;;;;17.83;9.75;;;;;;;-9.05;79.94;103460.22;10565726;27;20055;-76
2022/12/02 02:15:09;;;;;;;16.85;8.30;;;;;;;-9.06;79.89;103447.00;10570403;27;20040;-77
2022/12/02 02:20:15;;;;;;;21.75;9.45;;;;;;;-9.08;80.12;103436.44;10612128;27;20039;-77
2022/12/02 02:25:18;;;;;;;18.08;9.52;;;;;;;-9.04;80.60;103437.13;10602141;27;20498;-77
2022/12/02 02:30:21;;;;;;;16.73;8.68;;;;;;;-9.07;80.48;103435.50;10591309;27;20506;-77
2022/12/02 02:35:23;;;;;;;16.02;8.98;;;;;;;-9.05;80.88;103436.28;10572489;27;20207;-77
2022/12/02 02:40:27;;;;;;;20.33;9.55;;;;;;;-9.05;80.66;103441.59;10609068;27;20048;-77
2022/12/02 02:45:33;;;;;;;19.92;9.20;;;;;;;-9.13;80.86;103441.16;10596780;27;20050;-77
2022/12/02 02:50:39;;;;;;;15.93;8.32;;;;;;;-9.18;80.67;103437.91;10605308;27;20031;-77
2022/12/02 02:56:00;;;;;;;20.23;9.25;;;;;;;-9.28;81.20;103442.88;10566629;28;20146;-77
2022/12/02 03:01:16;;;;;;;19.27;9.23;;;;;;;-9.33;80.70;103452.91;10578748;27;20047;-76
2022/12/02 03:06:21;;;;;;;10.18;5.07;;;;;;;-9.35;81.01;103448.59;10590930;27;20054;-77
2022/12/02 03:11:25;;;;;;;17.25;8.60;;;;;;;-9.32;81.20;103445.78;10572012;27;20047;-78
2022/12/02 03:16:28;;;;;;;18.23;9.68;;;;;;;-9.35;81.61;103457.44;10622437;27;20035;-76
2022/12/02 03:21:32;;;;;;;17.90;7.35;;;;;;;-9.43;81.06;103455.19;10611789;27;20063;-76
2022/12/02 03:26:35;;;;;;;19.20;8.13;;;;;;;-9.52;80.88;103447.72;10599934;27;20055;-77
2022/12/02 03:31:37;;;;;;;17.10;8.75;;;;;;;-9.58;80.36;103442.69;10624096;27;20050;-76
2022/12/02 03:36:40;;;;;;;14.20;8.30;;;;;;;-9.58;80.83;103442.69;10591482;27;20039;-75
2022/12/02 03:41:44;;;;;;;16.58;8.32;;;;;;;-9.58;80.93;103442.69;10596942;27;20055;-76
2022/12/02 03:46:48;;;;;;;16.92;8.93;;;;;;;-9.53;80.93;103434.50;10606019;27;20050;-76
2022/12/02 03:51:53;;;;;;;15.30;7.60;;;;;;;-9.47;79.88;103439.47;10608450;27;20039;-75
2022/12/02 03:56:58;;;;;;;15.82;7.32;;;;;;;-9.48;80.21;103433.31;10600310;27;20035;-77
2022/12/02 04:02:00;;;;;;;15.23;7.50;;;;;;;-9.49;79.85;103442.22;10613745;27;20046;-77
2022/12/02 04:07:02;;;;;;;14.73;6.13;;;;;;;-9.49;79.62;103434.25;10606527;28;20055;-77
2022/12/02 04:12:05;;;;;;;2.13;1.60;;;;;;;-9.50;79.97;103443.16;10609774;28;20127;-77
2022/12/02 04:17:07;;;;;;;13.98;6.35;;;;;;;-9.48;79.22;103446.59;10603923;27;20046;-78
2022/12/02 04:22:09;;;;;;;14.95;6.35;;;;;;;-9.44;79.60;103437.50;10625157;27;20043;-77
2022/12/02 04:27:12;;;;;;;12.63;6.43;;;;;;;-9.43;79.91;103439.22;10593134;28;20525;-76
2022/12/02 04:32:14;;;;;;;14.55;6.63;;;;;;;-9.44;79.40;103439.31;10578260;28;20056;-77
2022/12/02 04:37:19;;;;;;;16.63;7.10;;;;;;;-9.42;78.96;103442.75;10599511;28;20127;-77
2022/12/02 04:42:21;;;;;;;12.05;5.88;;;;;;;-9.38;78.88;103432.78;10586675;28;20039;-77
2022/12/02 04:47:23;;;;;;;12.60;6.07;;;;;;;-9.35;78.83;103440.63;10610522;28;20039;-78
2022/12/02 04:52:26;;;;;;;13.02;6.43;;;;;;;-9.34;79.21;103434.38;10609575;28;20075;-76
2022/12/02 04:57:28;;;;;;;12.55;6.72;;;;;;;-9.36;78.82;103439.78;10594662;28;20043;-76
2022/12/02 05:02:30;;;;;;;5.93;3.08;;;;;;;-9.38;77.93;103436.31;10614732;27;20486;-77
2022/12/02 05:07:33;;;;;;;17.25;7.60;;;;;;;-9.42;77.89;103422.34;10612494;27;20044;-77
2022/12/02 05:12:35;;;;;;;19.58;7.15;;;;;;;-9.47;78.04;103432.38;10588434;27;20055;-77
2022/12/02 05:17:37;;;;;;;16.55;6.95;;;;;;;-9.49;78.22;103428.06;10572523;27;20043;-77
2022/12/02 05:22:39;;;;;;;20.20;8.23;;;;;;;-9.48;78.11;103435.09;10624000;27;20063;-77
2022/12/02 05:27:42;;;;;;;16.50;7.22;;;;;;;-9.50;77.73;103421.91;10570347;28;20043;-77
2022/12/02 05:32:44;;;;;;;7.72;3.75;;;;;;;-9.51;78.05;103419.34;10586999;28;20058;-76
2022/12/02 05:37:46;;;;;;;18.70;6.22;;;;;;;-9.55;77.88;103437.22;10586505;27;20040;-77
2022/12/02 05:42:48;;;;;;;3.40;3.05;;;;;;;-9.59;77.37;103440.13;10616771;27;20048;-76
2022/12/02 05:47:54;;;;;;;15.00;7.03;;;;;;;-9.67;76.85;103432.56;10604453;27;20498;-76
2022/12/02 05:52:56;;;;;;;19.40;8.40;;;;;;;-9.75;77.26;103425.00;10620858;27;20375;-76
2022/12/02 05:57:59;;;;;;;10.43;3.35;;;;;;;-9.75;77.59;103418.81;10641302;27;20057;-76
2022/12/02 06:03:05;;;;;;;10.93;5.00;;;;;;;-9.68;76.94;103430.84;10659009;27;20041;-75
2022/12/02 06:08:21;;;;;;;9.75;4.40;;;;;;;-9.65;76.40;103438.66;10641271;27;20047;-77
2022/12/02 06:13:28;;;;;;;11.95;6.00;;;;;;;-9.59;76.65;103433.00;10640665;27;20046;-75
2022/12/02 06:18:34;;;;;;;6.93;3.53;;;;;;;-9.52;76.33;103437.06;10642773;27;20526;-77
2022/12/02 06:23:41;;;;;;;12.18;5.50;;;;;;;-9.49;75.96;103431.59;10602759;28;20039;-76
2022/12/02 06:28:45;;;;;;;3.35;2.40;;;;;;;-9.44;75.61;103439.31;10579060;28;20035;-78
2022/12/02 06:34:21;;;;;;;11.85;5.60;;;;;;;-9.36;75.87;103445.09;10574983;28;20056;-75
2022/12/02 06:39:44;;;;;;;7.25;4.28;;;;;;;-9.32;75.22;103445.78;10588816;27;20509;-77
2022/12/02 06:45:32;;;;;;;7.47;4.45;;;;;;;-9.23;74.81;103454.09;10592786;28;20035;-78
2022/12/02 06:50:36;;;;;;;11.27;4.57;;;;;;;-9.18;74.50;103456.53;10572290;27;20035;-77
2022/12/02 06:55:39;;;;;;;7.65;4.10;;;;;;;-9.16;73.94;103460.81;10607523;27;20044;-76
2022/12/02 07:00:47;;;;;;;10.50;4.97;;;;;;;-9.14;73.81;103472.22;10569712;28;20047;-76
2022/12/02 07:05:53;;;;;;;12.77;5.60;;;;;;;-9.08;73.62;103472.81;10594959;27;20088;-77
2022/12/02 07:10:55;;;;;;;5.78;3.15;;;;;;;-8.94;73.10;103473.78;10572220;27;20040;-77
2022/12/02 07:15:57;;;;;;;10.75;5.30;;;;;;;-8.80;73.17;103464.19;10593585;27;20043;-77
2022/12/02 07:20:59;;;;;;;13.77;6.60;;;;;;;-8.72;72.67;103464.59;10588283;27;20036;-76
2022/12/02 07:26:02;;;;;;;13.90;5.43;;;;;;;-8.53;72.55;103474.13;10605799;27;20046;-75
2022/12/02 07:31:24;;;;;;;5.78;2.70;;;;;;;-8.23;71.59;103465.28;10612331;27;20047;-77
2022/12/02 07:36:26;;;;;;;12.57;5.38;;;;;;;-8.02;71.39;103468.50;10571024;27;20047;-77
2022/12/02 07:41:28;;;;;;;12.80;5.32;;;;;;;-7.82;70.60;103470.84;10580634;27;20048;-77
2022/12/02 07:46:30;;;;;;;18.58;7.43;;;;;;;-7.63;69.91;103467.94;10612168;28;20040;-77
2022/12/02 07:51:51;;;;;;;15.73;7.22;;;;;;;-7.13;70.08;103466.59;10597752;28;20048;-79
2022/12/02 07:57:12;;;;;;;18.92;7.57;;;;;;;-6.33;68.67;103465.00;10613150;27;20398;-76
2022/12/02 08:02:32;;;;;;;7.30;3.80;;;;;;;-5.57;66.77;103467.81;10612720;28;20051;-76
2022/12/02 08:07:54;;;;;;;11.35;5.55;;;;;;;-4.82;64.36;103462.50;10595653;27;20105;-76
2022/12/02 08:13:15;;;;;;;7.03;3.83;;;;;;;-4.75;62.06;103477.16;10609170;28;20036;-77
2022/12/02 08:18:36;;;;;;;12.10;5.40;;;;;;;-4.91;60.98;103472.03;10596502;28;20039;-76
2022/12/02 08:23:57;;;;;;;14.43;4.72;;;;;;;-5.50;61.33;103474.47;10625565;27;20031;-76
2022/12/02 08:29:18;;;;;;;13.25;5.60;;;;;;;-6.10;61.50;103472.34;10611140;28;20044;-76
2022/12/02 08:34:38;;;;;;;12.73;6.43;;;;;;;-6.64;62.66;103472.34;10603110;28;20540;-77
2022/12/02 08:39:59;;;;;;;11.10;4.97;;;;;;;-6.83;63.06;103474.50;10620014;28;20078;-76
2022/12/02 08:45:20;;;;;;;5.97;3.75;;;;;;;-6.96;63.31;103469.06;10577616;28;20044;-77
2022/12/02 08:50:41;;;;;;;7.38;4.43;;;;;;;-7.00;63.72;103478.22;10611844;27;20051;-77
2022/12/02 08:56:03;;;;;;;3.75;2.55;;;;;;;-7.06;63.79;103470.63;10608176;27;20058;-75
2022/12/02 09:01:09;;;;;;;2.38;1.75;;;;;;;-7.18;63.57;103466.03;10615614;28;20044;-77
2022/12/02 09:06:11;;;;;;;9.55;4.25;;;;;;;-7.26;63.35;103471.88;10578422;27;20051;-78
2022/12/02 09:11:14;;;;;;;5.45;3.65;;;;;;;-7.33;63.67;103465.19;10615491;27;20069;-78
2022/12/02 09:16:16;;;;;;;10.93;4.28;;;;;;;-7.34;64.81;103450.13;10652892;27;20508;-77
2022/12/02 09:21:18;;;;;;;8.75;4.78;;;;;;;-7.30;64.50;103444.50;10604685;27;20387;-77
2022/12/02 09:26:21;;;;;;;13.10;4.10;;;;;;;-7.26;64.84;103434.53;10621655;27;20051;-77
2022/12/02 09:31:23;;;;;;;16.15;4.82;;;;;;;-7.15;64.59;103436.50;10589889;27;20032;-75
2022/12/02 09:36:27;;;;;;;10.30;4.47;;;;;;;-7.01;64.58;103426.66;10651664;27;20039;-75
2022/12/02 09:41:30;;;;;;;6.75;3.80;;;;;;;-6.88;64.70;103433.91;10659239;27;20047;-76
2022/12/02 09:46:33;;;;;;;10.63;6.35;;;;;;;-6.85;64.43;103428.34;10654456;27;20509;-76
2022/12/02 09:51:35;;;;;;;12.35;4.70;;;;;;;-6.85;64.68;103439.03;10640255;27;20297;-76
2022/12/02 09:56:40;;;;;;;4.72;2.38;;;;;;;-6.88;64.05;103433.91;10597902;28;20054;-77
2022/12/02 10:02:01;;;;;;;12.10;4.90;;;;;;;-6.92;63.21;103430.56;10617429;28;20449;-76
2022/12/02 10:07:07;;;;;;;17.25;6.43;;;;;;;-6.89;63.62;103427.69;10579543;28;20051;-77
2022/12/02 10:12:10;;;;;;;12.15;5.25;;;;;;;-6.84;63.93;103433.59;10573822;28;20548;-76
2022/12/02 10:17:31;;;;;;;13.20;5.25;;;;;;;-6.82;64.28;103428.16;10561915;28;20040;-76
2022/12/02 10:23:07;;;;;;;13.18;5.68;;;;;;;-6.83;63.86;103418.44;10604228;28;20088;-75
2022/12/02 10:28:19;;;;;;;14.50;6.40;;;;;;;-6.84;64.38;103424.72;10576173;28;20052;-77
2022/12/02 10:33:24;;;;;;;15.15;6.22;;;;;;;-6.83;64.50;103424.63;10576413;28;20048;-77
2022/12/02 10:38:38;;;;;;;4.72;2.75;;;;;;;-6.83;64.14;103424.63;10602506;28;20452;-78
2022/12/02 10:43:42;;;;;;;13.38;6.03;;;;;;;-6.88;64.34;103416.06;10618460;28;20044;-76
2022/12/02 10:48:45;;;;;;;18.67;7.15;;;;;;;-6.94;65.21;103411.13;10618898;28;20043;-77
2022/12/02 10:53:50;;;;;;;10.80;5.35;;;;;;;-6.94;65.06;103410.25;10600630;28;20498;-77
2022/12/02 10:58:54;;;;;;;26.48;8.95;;;;;;;-6.94;64.98;103415.59;10616801;28;20060;-77
2022/12/02 11:03:56;;;;;;;17.05;7.65;;;;;;;-6.97;65.91;103410.44;10582661;28;20036;-77
2022/12/02 11:08:59;;;;;;;25.30;9.25;;;;;;;-6.98;66.48;103412.28;10598321;28;20060;-76
2022/12/02 11:19:51;;;;;;;16.33;6.03;;;;;;;-6.96;66.79;103404.16;10546825;28;20074;-76
2022/12/02 11:24:54;;;;;;;15.60;6.82;;;;;;;-6.91;66.99;103388.72;10570202;28;20036;-77
2022/12/02 11:30:14;;;;;;;11.45;5.97;;;;;;;-6.91;66.83;103399.41;10552476;28;20043;-76
2022/12/02 11:35:55;;;;;;;13.88;6.90;;;;;;;-6.97;66.29;103391.78;10535733;28;20499;-76
2022/12/02 11:41:01;;;;;;;19.08;8.30;;;;;;;-7.06;66.74;103385.22;10570287;28;20043;-76
2022/12/02 11:46:04;;;;;;;6.20;4.28;;;;;;;-7.07;67.05;103379.03;10536698;28;20040;-76
2022/12/02 11:51:27;;;;;;;18.65;6.72;;;;;;;-7.06;67.02;103372.75;10570110;28;20044;-76
2022/12/02 11:56:36;;;;;;;15.45;6.30;;;;;;;-7.06;67.65;103378.09;10570076;28;20392;-76
2022/12/02 12:01:38;;;;;;;11.35;5.15;;;;;;;-7.01;67.86;103372.44;10584892;27;20118;-76
2022/12/02 12:06:56;;;;;;;20.65;7.13;;;;;;;-6.92;67.77;103379.00;10597887;27;20040;-77
2022/12/02 12:12:05;;;;;;;3.92;2.65;;;;;;;-6.97;67.61;103375.75;10602556;27;20411;-76
2022/12/02 12:17:42;;;;;;;16.52;5.40;;;;;;;-7.02;68.24;103384.06;10587221;27;20408;-76
2022/12/02 12:23:26;;;;;;;13.13;5.57;;;;;;;-7.01;68.52;103381.31;10614845;27;20137;-77
2022/12/02 12:28:47;;;;;;;18.02;7.05;;;;;;;-7.02;68.54;103378.72;10565341;28;20047;-76
2022/12/02 12:34:09;;;;;;;7.85;3.22;;;;;;;-7.00;68.32;103376.81;10599288;28;20051;-76
2022/12/02 12:39:34;;;;;;;8.80;4.10;;;;;;;-7.01;69.29;103378.63;10610894;28;20605;-76
2022/12/02 12:44:54;;;;;;;9.27;3.28;;;;;;;-7.03;68.69;103364.53;10610066;28;20063;-76
2022/12/02 12:50:15;;;;;;;10.50;5.20;;;;;;;-7.03;69.15;103371.69;10634793;28;20054;-78
2022/12/02 12:55:18;;;;;;;18.05;6.82;;;;;;;-7.07;69.67;103357.69;10625057;28;20039;-77
2022/12/02 13:00:38;;;;;;;15.05;5.75;;;;;;;-7.11;69.29;103364.19;10593605;28;20035;-75
2022/12/02 13:05:59;;;;;;;8.45;4.85;;;;;;;-7.18;69.31;103362.84;10609590;28;20047;-78
2022/12/02 13:11:20;;;;;;;11.02;5.00;;;;;;;-7.19;69.42;103370.97;10613426;28;20040;-74
2022/12/02 13:16:42;;;;;;;9.38;3.97;;;;;;;-7.22;70.15;103368.50;10607314;28;20035;-75
2022/12/02 13:22:03;;;;;;;14.68;5.47;;;;;;;-7.25;70.22;103380.22;10578702;28;20058;-76
2022/12/02 13:27:24;;;;;;;8.88;4.07;;;;;;;-7.32;70.52;103381.53;10594152;27;20513;-78
2022/12/02 13:32:46;;;;;;;2.97;2.22;;;;;;;-7.33;70.67;103380.69;10631974;27;20052;-77
2022/12/02 13:38:07;;;;;;;12.00;3.97;;;;;;;-7.35;71.02;103387.06;10600351;27;20410;-76
2022/12/02 13:43:29;;;;;;;7.65;3.33;;;;;;;-7.43;71.05;103386.72;10617460;27;20063;-78
2022/12/02 13:48:50;;;;;;;12.35;5.85;;;;;;;-7.48;71.51;103391.47;10613323;27;20047;-77
2022/12/02 13:53:52;;;;;;;12.43;6.05;;;;;;;-7.50;71.39;103382.69;10597043;27;20072;-78
2022/12/02 13:58:54;;;;;;;5.82;2.25;;;;;;;-7.56;71.93;103386.63;10624149;27;20073;-78
2022/12/02 14:03:57;;;;;;;6.65;3.45;;;;;;;-7.49;71.83;103376.41;10633053;27;20046;-79
2022/12/02 14:08:59;;;;;;;2.95;2.47;;;;;;;-7.48;71.47;103375.47;10639549;27;20058;-78
2022/12/02 14:14:01;;;;;;;6.63;2.80;;;;;;;-7.41;71.81;103369.66;10622258;27;20051;-78
2022/12/02 14:19:03;;;;;;;10.85;3.90;;;;;;;-7.39;71.32;103373.09;10619794;27;20042;-76
2022/12/02 14:24:05;;;;;;;10.25;3.97;;;;;;;-7.44;70.88;103361.00;10594216;27;20042;-75
2022/12/02 14:29:08;;;;;;;4.95;3.15;;;;;;;-7.46;71.72;103362.88;10609426;28;20537;-75
2022/12/02 14:34:10;;;;;;;6.55;3.65;;;;;;;-7.48;70.80;103354.97;10606917;28;20498;-77
2022/12/02 14:39:31;;;;;;;2.72;1.85;;;;;;;-7.47;71.07;103353.16;10607366;28;20041;-76
2022/12/02 14:44:52;;;;;;;4.32;2.72;;;;;;;-7.46;70.97;103365.56;10609458;28;20498;-77
2022/12/02 14:49:54;;;;;;;2.75;1.98;;;;;;;-7.43;70.61;103357.38;10592668;28;20031;-76
2022/12/02 14:54:56;;;;;;;4.75;2.30;;;;;;;-7.37;70.20;103362.31;10606089;28;20039;-77
2022/12/02 14:59:58;;;;;;;1.48;0.95;;;;;;;-7.34;70.20;103362.97;10608574;28;20063;-77
2022/12/02 15:05:00;;;;;;;2.60;1.80;;;;;;;-7.32;70.29;103354.88;10601243;28;20165;-78
2022/12/02 15:10:03;;;;;;;6.68;3.33;;;;;;;-7.32;69.76;103354.88;10604303;27;20051;-76
2022/12/02 15:15:06;;;;;;;4.97;2.63;;;;;;;-7.35;69.12;103360.41;10618749;27;20058;-76
2022/12/02 15:20:27;;;;;;;3.85;3.05;;;;;;;-7.34;69.52;103362.97;10595146;27;20035;-77
2022/12/02 15:25:29;;;;;;;9.80;4.85;;;;;;;-7.34;69.31;103346.13;10595453;28;20048;-79
2022/12/02 15:30:31;;;;;;;6.63;2.47;;;;;;;-7.38;69.34;103355.28;10572397;28;20032;-79
2022/12/02 15:35:34;;;;;;;2.05;1.75;;;;;;;-7.35;69.47;103355.06;10626001;27;20043;-79
2022/12/02 15:40:38;;;;;;;6.20;3.55;;;;;;;-7.37;68.82;103359.66;10654615;27;20035;-77
2022/12/02 15:45:41;;;;;;;2.33;1.80;;;;;;;-7.40;69.26;103365.19;10586267;27;20043;-77
2022/12/02 15:50:44;;;;;;;16.88;5.22;;;;;;;-7.40;68.75;103368.72;10635621;27;20035;-77
2022/12/02 15:55:47;;;;;;;4.30;2.17;;;;;;;-7.48;69.04;103373.66;10635703;27;20038;-78
2022/12/02 16:00:49;;;;;;;7.72;4.20;;;;;;;-7.54;69.23;103363.38;10607986;28;20046;-77
2022/12/02 16:05:51;;;;;;;11.85;5.88;;;;;;;-7.58;69.47;103356.53;10627069;27;20039;-77
2022/12/02 16:10:53;;;;;;;16.58;6.13;;;;;;;-7.62;69.55;103361.22;10624937;27;20047;-75
2022/12/02 16:15:56;;;;;;;12.18;5.72;;;;;;;-7.61;69.79;103370.06;10606715;27;20054;-77
2022/12/02 16:20:58;;;;;;;15.77;6.50;;;;;;;-7.57;69.11;103349.38;10604728;27;20522;-77
2022/12/02 16:26:00;;;;;;;12.68;4.78;;;;;;;-7.51;69.09;103349.00;10621227;27;20048;-76
2022/12/02 16:31:02;;;;;;;11.02;5.05;;;;;;;-7.50;69.12;103346.22;10612906;27;20047;-76
2022/12/02 16:36:05;;;;;;;9.80;4.45;;;;;;;-7.51;69.33;103349.00;10575278;28;20422;-75
2022/12/02 16:41:08;;;;;;;8.45;5.10;;;;;;;-7.56;68.98;103364.44;10562288;28;20046;-77
2022/12/02 16:46:11;;;;;;;17.42;6.20;;;;;;;-7.58;68.77;103361.00;10559406;28;20502;-81
2022/12/02 16:51:13;;;;;;;13.38;5.82;;;;;;;-7.62;69.15;103358.53;10576469;28;20048;-80
2022/12/02 16:56:47;;;;;;;14.20;5.57;;;;;;;-7.68;69.55;103364.22;10552916;28;20050;-87
2022/12/02 17:01:49;;;;;;;13.25;4.78;;;;;;;-7.75;68.91;103368.25;10583567;28;20055;-86
2022/12/02 17:06:52;;;;;;;11.13;4.65;;;;;;;-7.70;69.00;103355.47;10578471;28;20039;-81
2022/12/02 17:11:55;;;;;;;10.70;4.82;;;;;;;-7.69;69.25;103351.84;10588726;28;20064;-80
2022/12/02 17:17:23;;;;;;;13.10;5.03;;;;;;;-7.69;69.27;103346.53;10584685;28;20040;-81
2022/12/02 17:22:25;;;;;;;10.77;4.93;;;;;;;-7.72;69.35;103354.72;10588861;28;20510;-79
2022/12/02 17:27:28;;;;;;;11.32;5.82;;;;;;;-7.74;70.15;103359.28;10575893;28;20062;-79
2022/12/02 17:32:56;;;;;;;10.63;5.35;;;;;;;-7.73;70.23;103353.00;10588695;28;20074;-81
2022/12/02 17:37:58;;;;;;;11.25;5.78;;;;;;;-7.73;70.21;103353.00;10594142;28;20044;-82
2022/12/02 17:43:04;;;;;;;16.15;6.03;;;;;;;-7.74;69.71;103353.97;10569261;28;20059;-79
2022/12/02 17:48:06;;;;;;;19.25;6.25;;;;;;;-7.73;69.99;103342.34;10585734;28;20044;-82
2022/12/02 17:53:09;;;;;;;10.43;5.50;;;;;;;-7.76;70.11;103350.53;10591436;28;20055;-79
2022/12/02 17:58:17;;;;;;;12.30;5.25;;;;;;;-7.78;70.09;103357.78;10565424;28;20419;-81
2022/12/02 18:03:20;;;;;;;16.63;6.22;;;;;;;-7.80;69.90;103351.69;10586789;28;20048;-80
2022/12/02 18:08:27;;;;;;;11.73;5.55;;;;;;;-7.79;70.00;103349.88;10545654;28;20062;-87
2022/12/02 18:14:00;;;;;;;15.13;6.25;;;;;;;-7.72;70.32;103356.53;10585936;28;20135;-84
2022/12/02 18:19:22;;;;;;;12.45;5.78;;;;;;;-7.78;69.92;103352.44;10568190;28;20072;-83
2022/12/02 18:24:25;;;;;;;13.52;6.72;;;;;;;-7.83;70.39;103354.50;10584361;28;20046;-86
2022/12/02 18:29:27;;;;;;;19.23;6.88;;;;;;;-7.91;70.34;103354.16;10582773;28;20040;-84
2022/12/02 18:34:30;;;;;;;13.13;5.30;;;;;;;-7.95;70.82;103358.81;10602654;28;20040;-77
2022/12/02 18:39:33;;;;;;;11.57;5.45;;;;;;;-8.01;70.59;103371.63;10626442;27;20447;-84
2022/12/02 18:44:36;;;;;;;14.32;6.57;;;;;;;-8.03;70.31;103361.06;10609495;27;20039;-79
2022/12/02 18:49:38;;;;;;;14.48;6.28;;;;;;;-8.05;71.03;103375.44;10604799;27;20061;-79
2022/12/02 18:54:41;;;;;;;13.52;5.82;;;;;;;-8.09;70.47;103377.44;10628391;28;20039;-79
2022/12/02 18:59:45;;;;;;;14.82;5.70;;;;;;;-8.11;70.93;103386.47;10620029;27;20464;-77
2022/12/02 19:04:48;;;;;;;13.93;5.55;;;;;;;-8.09;71.11;103384.56;10620797;27;20040;-79
2022/12/02 19:09:54;;;;;;;14.20;6.68;;;;;;;-8.11;71.15;103387.34;10619692;27;20042;-78
2022/12/02 19:14:57;;;;;;;16.27;6.13;;;;;;;-8.10;70.86;103388.19;10599679;28;20378;-79
2022/12/02 19:20:05;;;;;;;14.52;6.13;;;;;;;-8.08;71.36;103386.28;10604819;27;20053;-78
2022/12/02 19:25:07;;;;;;;16.27;6.68;;;;;;;-8.06;70.92;103385.25;10607025;28;20042;-78
2022/12/02 19:30:10;;;;;;;17.15;7.32;;;;;;;-8.02;71.58;103391.22;10606383;27;20052;-77
2022/12/02 19:35:12;;;;;;;19.40;6.07;;;;;;;-7.95;71.63;103382.78;10611621;28;20517;-77
2022/12/02 19:40:14;;;;;;;16.75;6.70;;;;;;;-7.94;71.05;103389.84;10619269;28;20047;-78
2022/12/02 19:45:16;;;;;;;15.05;6.68;;;;;;;-7.91;71.26;103384.31;10617854;28;20047;-78
2022/12/02 19:50:19;;;;;;;14.43;6.90;;;;;;;-7.86;71.63;103392.03;10598010;28;20054;-75
2022/12/02 19:55:21;;;;;;;15.65;7.78;;;;;;;-7.82;70.86;103387.34;10613436;27;20032;-75
2022/12/02 20:00:23;;;;;;;15.20;6.88;;;;;;;-7.80;71.61;103377.50;10610822;27;20051;-76
2022/12/02 20:05:26;;;;;;;15.10;6.88;;;;;;;-7.81;71.26;103373.06;10614817;27;20545;-76
2022/12/02 20:10:28;;;;;;;16.52;6.88;;;;;;;-7.81;71.20;103373.06;10620352;27;20382;-75
2022/12/02 20:15:30;;;;;;;17.40;6.45;;;;;;;-7.86;70.69;103381.38;10585657;27;20053;-74
2022/12/02 20:20:32;;;;;;;15.55;6.47;;;;;;;-7.84;70.84;103383.94;10605034;28;20050;-75
2022/12/02 20:25:35;;;;;;;12.48;6.40;;;;;;;-7.82;70.93;103388.22;10623802;27;20045;-77
2022/12/02 20:30:37;;;;;;;10.52;5.78;;;;;;;-7.75;71.74;103388.72;10617779;28;20520;-75
2022/12/02 20:35:40;;;;;;;15.52;6.70;;;;;;;-7.77;70.92;103396.81;10622159;28;20040;-77
2022/12/02 20:40:42;;;;;;;11.02;5.93;;;;;;;-7.79;71.15;103397.84;10624758;28;20047;-76
2022/12/02 20:45:44;;;;;;;17.10;7.22;;;;;;;-7.76;71.02;103393.19;10656069;28;20054;-76
2022/12/02 20:50:49;;;;;;;14.27;6.47;;;;;;;-7.78;71.90;103388.91;10609755;28;20041;-74
2022/12/02 20:55:51;;;;;;;18.48;6.20;;;;;;;-7.72;71.31;103384.03;10612188;28;20039;-77
2022/12/02 21:00:54;;;;;;;14.82;6.57;;;;;;;-7.68;71.71;103380.22;10642849;28;20043;-75
2022/12/02 21:05:56;;;;;;;14.88;6.80;;;;;;;-7.67;71.84;103375.75;10609600;28;20047;-76
2022/12/02 21:11:01;;;;;;;14.55;6.38;;;;;;;-7.69;71.15;103378.50;10612662;28;20038;-77
2022/12/02 21:16:03;;;;;;;15.23;6.82;;;;;;;-7.61;71.88;103378.06;10582531;28;20051;-77
2022/12/02 21:21:05;;;;;;;14.63;6.82;;;;;;;-7.61;71.73;103381.59;10610560;28;20035;-77
2022/12/02 21:26:07;;;;;;;14.23;7.15;;;;;;;-7.56;71.52;103370.63;10611771;28;20427;-76
2022/12/02 21:31:10;;;;;;;15.55;7.43;;;;;;;-7.49;71.34;103376.41;10608958;28;20039;-78
2022/12/02 21:36:12;;;;;;;12.38;6.60;;;;;;;-7.54;71.37;103378.53;10590435;28;20047;-74
2022/12/02 21:41:15;;;;;;;15.60;7.35;;;;;;;-7.52;71.34;103368.63;10595262;28;20040;-74
2022/12/02 21:46:17;;;;;;;16.17;6.72;;;;;;;-7.57;72.14;103366.25;10604934;27;20055;-75
2022/12/02 21:51:19;;;;;;;14.73;6.38;;;;;;;-7.55;72.31;103375.00;10592708;27;20038;-75
2022/12/02 21:56:23;;;;;;;13.75;6.85;;;;;;;-7.56;71.90;103383.97;10643959;27;20059;-76
2022/12/02 22:01:37;;;;;;;11.45;6.35;;;;;;;-7.52;71.84;103379.28;10646418;27;20043;-74
2022/12/02 22:06:39;;;;;;;13.15;6.95;;;;;;;-7.54;71.70;103373.19;10592317;28;20039;-75
2022/12/02 22:11:42;;;;;;;14.35;7.05;;;;;;;-7.58;72.48;103359.19;10636906;27;20051;-74
2022/12/02 22:16:44;;;;;;;15.32;7.38;;;;;;;-7.61;72.66;103373.59;10609239;27;20410;-78
2022/12/02 22:21:46;;;;;;;16.45;7.32;;;;;;;-7.66;72.65;103373.00;10608642;27;20058;-76
2022/12/02 22:26:52;;;;;;;16.48;7.18;;;;;;;-7.69;72.02;103373.19;10613698;27;20055;-76
2022/12/02 22:31:56;;;;;;;20.13;7.53;;;;;;;-7.70;72.52;103366.16;10631010;27;20151;-76
2022/12/02 22:36:59;;;;;;;11.90;6.07;;;;;;;-7.73;73.00;103361.00;10619974;27;20505;-75
2022/12/02 22:42:06;;;;;;;21.02;10.05;;;;;;;-7.70;72.81;103365.28;10641716;27;20130;-76
2022/12/02 22:47:12;;;;;;;13.50;6.78;;;;;;;-7.72;72.51;103362.72;10638169;27;20032;-74
2022/12/02 22:52:14;;;;;;;14.15;7.10;;;;;;;-7.71;73.23;103356.44;10599948;27;20052;-74
2022/12/02 22:57:20;;;;;;;16.05;6.93;;;;;;;-7.68;72.93;103348.25;10620755;27;20054;-75
2022/12/02 23:02:26;;;;;;;16.08;7.20;;;;;;;-7.64;73.51;103348.91;10616169;27;20048;-75
2022/12/02 23:07:28;;;;;;;17.70;7.97;;;;;;;-7.60;72.82;103345.13;10588218;27;20059;-79
2022/12/02 23:12:30;;;;;;;13.50;6.35;;;;;;;-7.54;73.14;103341.19;10606248;28;20031;-81
2022/12/02 23:17:33;;;;;;;15.68;6.45;;;;;;;-7.57;73.53;103336.91;10592239;27;20028;-78
2022/12/02 23:22:35;;;;;;;11.00;5.38;;;;;;;-7.60;73.36;103339.78;10624263;28;20039;-79
2022/12/02 23:27:37;;;;;;;13.35;6.28;;;;;;;-7.61;73.19;103354.91;10603088;27;20042;-75